createdAt,value
2019-02-07T00:04:05.387Z,79.57
2019-02-07T00:09:09.930Z,81.19
2019-02-07T00:14:14.390Z,80.66
2019-02-07T00:19:18.771Z,80.18
2019-02-07T00:24:23.142Z,80.56
2019-02-07T00:29:27.498Z,80.53
2019-02-07T00:34:31.896Z,80.45
2019-02-07T00:39:36.743Z,81.14
2019-02-07T00:44:50.397Z,81.58
2019-02-07T00:49:47.576Z,80.74
2019-02-07T00:54:51.933Z,80.77
2019-02-07T00:59:56.322Z,82.00
2019-02-07T01:05:00.684Z,80.92
2019-02-07T01:10:08.309Z,81.60
2019-02-07T01:15:13.519Z,81.50
2019-02-07T01:20:18.054Z,81.18
2019-02-07T01:25:23.572Z,82.41
2019-02-07T01:30:29.170Z,81.16
2019-02-07T01:35:33.550Z,81.94
2019-02-07T01:40:37.982Z,81.30
2019-02-07T01:45:42.332Z,81.87
2019-02-07T01:50:46.954Z,81.58
2019-02-07T01:55:51.419Z,81.43
2019-02-07T02:00:56.074Z,79.94
2019-02-07T02:06:00.487Z,79.73
2019-02-07T02:11:04.958Z,80.44
2019-02-07T02:16:09.486Z,81.32
2019-02-07T02:21:13.863Z,81.20
2019-02-07T02:26:18.225Z,81.17
2019-02-07T02:31:22.573Z,82.23
2019-02-07T02:36:26.969Z,81.93
2019-02-07T02:41:31.361Z,81.31
2019-02-07T02:46:35.703Z,81.41
2019-02-07T02:51:40.117Z,81.75
2019-02-07T02:56:44.500Z,81.14
2019-02-07T03:01:50.530Z,80.74
2019-02-07T03:07:02.753Z,79.74
2019-02-07T03:12:14.741Z,77.42
2019-02-07T03:17:20.771Z,78.60
2019-02-07T03:22:26.800Z,78.40
2019-02-07T03:27:47.777Z,78.36
2019-02-07T03:33:12.429Z,79.78
2019-02-07T03:38:21.173Z,79.91
2019-02-07T03:43:45.058Z,80.85
2019-02-07T03:48:53.707Z,81.53
2019-02-07T03:53:59.723Z,80.54
2019-02-07T03:59:12.165Z,81.10
2019-02-07T04:04:21.205Z,82.23
2019-02-07T04:09:27.238Z,82.00
2019-02-07T04:14:33.362Z,81.80
2019-02-07T04:19:41.932Z,80.96
2019-02-07T04:24:50.910Z,81.54
2019-02-07T04:30:12.063Z,82.60
2019-02-07T04:35:18.090Z,83.26
2019-02-07T04:40:27.291Z,83.52
2019-02-07T04:45:42.567Z,82.54
2019-02-07T04:50:48.592Z,84.51
2019-02-07T04:56:00.330Z,85.76
2019-02-07T05:01:22.615Z,83.61
2019-02-07T05:06:28.659Z,82.60
2019-02-07T05:11:46.970Z,84.43
2019-02-07T05:17:11.259Z,84.26
2019-02-07T05:22:32.303Z,82.91
2019-02-07T05:27:38.401Z,78.16
2019-02-07T05:32:59.505Z,77.36
2019-02-07T05:38:05.544Z,75.05
2019-02-07T05:43:22.241Z,76.15
2019-02-07T05:48:28.229Z,75.95
2019-02-07T05:53:37.089Z,77.43
2019-02-07T05:58:45.910Z,78.82
2019-02-07T06:04:00.808Z,77.78
2019-02-07T06:09:12.650Z,77.34
2019-02-07T06:14:34.752Z,78.17
2019-02-07T06:19:46.849Z,77.59
2019-02-07T06:25:01.945Z,77.45
2019-02-07T06:30:14.101Z,78.29
2019-02-07T06:35:20.179Z,78.28
2019-02-07T06:40:26.189Z,78.02
2019-02-07T06:45:32.187Z,75.94
2019-02-07T06:50:41.045Z,77.43
2019-02-07T06:55:53.235Z,76.19
2019-02-07T07:01:08.317Z,76.75
2019-02-07T07:06:14.355Z,76.41
2019-02-07T07:11:20.378Z,74.42
2019-02-07T07:16:42.449Z,75.26
2019-02-07T07:22:00.460Z,74.97
2019-02-07T07:27:09.275Z,75.02
2019-02-07T07:32:33.662Z,74.83
2019-02-07T07:37:42.398Z,74.70
2019-02-07T07:42:54.386Z,74.05
2019-02-07T07:48:09.286Z,74.31
2019-02-07T07:53:18.055Z,73.79
2019-02-07T07:58:42.502Z,71.90
2019-02-07T08:03:48.507Z,71.26
2019-02-07T08:09:11.170Z,71.70
2019-02-07T08:14:29.746Z,71.18
2019-02-07T08:19:45.838Z,70.58
2019-02-07T08:30:17.716Z,68.79
2019-02-07T08:35:23.743Z,69.05
2019-02-07T08:40:44.849Z,68.20
2019-02-07T08:46:07.046Z,66.88
2019-02-07T08:51:29.527Z,66.50
2019-02-07T08:56:50.576Z,66.80
2019-02-07T09:02:12.846Z,66.98
2019-02-07T09:07:18.881Z,66.63
2019-02-07T09:12:42.983Z,66.00
2019-02-07T09:17:51.421Z,66.91
2019-02-07T09:23:06.431Z,65.93
2019-02-07T09:28:12.429Z,65.13
2019-02-07T09:33:26.741Z,64.79
2019-02-07T09:38:38.075Z,65.43
2019-02-07T09:43:50.556Z,66.64
2019-02-07T09:48:59.471Z,65.83
2019-02-07T09:54:06.730Z,66.37
2019-02-07T09:59:24.812Z,65.43
2019-02-07T10:04:30.839Z,66.06
2019-02-07T10:09:53.414Z,66.90
2019-02-07T10:15:15.861Z,66.90
2019-02-07T10:20:37.553Z,66.46
2019-02-07T10:26:00.350Z,67.31
2019-02-07T10:31:06.452Z,67.11
2019-02-07T10:36:21.270Z,68.21
2019-02-07T10:41:36.009Z,66.98
2019-02-07T10:46:53.995Z,66.33
2019-02-07T10:52:06.180Z,66.75
2019-02-07T10:57:28.867Z,68.37
2019-02-07T11:02:37.994Z,67.88
2019-02-07T11:08:00.279Z,66.99
2019-02-07T11:13:06.769Z,66.56
2019-02-07T11:18:26.767Z,66.00
2019-02-07T11:23:48.100Z,66.44
2019-02-07T11:28:54.108Z,67.44
2019-02-07T11:34:15.540Z,66.32
2019-02-07T11:39:29.698Z,65.99
2019-02-07T11:44:35.157Z,65.54
2019-02-07T11:49:57.522Z,65.96
2019-02-07T11:55:03.540Z,66.41
2019-02-07T12:00:20.982Z,66.00
2019-02-07T12:05:27.011Z,66.03
2019-02-07T12:10:48.592Z,65.64
2019-02-07T12:15:54.610Z,66.15
2019-02-07T12:21:03.588Z,66.33
2019-02-07T12:26:27.426Z,65.22
2019-02-07T12:31:33.485Z,65.80
2019-02-07T12:36:48.494Z,64.84
2019-02-07T12:42:06.491Z,65.19
2019-02-07T12:47:12.524Z,65.61
2019-02-07T12:52:18.504Z,64.55
2019-02-07T12:57:27.062Z,64.60
2019-02-07T13:02:33.055Z,65.41
2019-02-07T13:07:44.744Z,64.50
2019-02-07T13:12:53.830Z,64.36
2019-02-07T13:18:05.865Z,66.20
2019-02-07T13:23:11.896Z,65.26
2019-02-07T13:28:17.855Z,65.56
2019-02-07T13:33:36.256Z,65.67
2019-02-07T13:38:51.552Z,65.71
2019-02-07T13:44:13.810Z,65.47
2019-02-07T13:49:28.503Z,65.88
2019-02-07T13:54:40.629Z,65.22
2019-02-07T14:00:03.337Z,65.49
2019-02-07T14:05:11.644Z,65.00
2019-02-07T14:10:23.742Z,66.21
2019-02-07T14:15:33.055Z,65.77
2019-02-07T14:20:55.033Z,66.52
2019-02-07T14:26:17.158Z,65.98
2019-02-07T14:31:39.694Z,66.31
2019-02-07T14:37:00.424Z,68.39
2019-02-07T14:42:09.100Z,67.67
2019-02-07T14:47:13.439Z,67.64
2019-02-07T14:52:17.900Z,69.76
2019-02-07T14:57:22.245Z,69.86
2019-02-07T15:02:27.626Z,69.46
2019-02-07T15:07:32.063Z,69.73
2019-02-07T15:12:36.437Z,71.02
2019-02-07T15:17:40.851Z,70.78
2019-02-07T15:22:46.396Z,70.92
2019-02-07T15:27:50.949Z,73.12
2019-02-07T15:32:55.330Z,73.81
2019-02-07T15:37:59.718Z,74.71
2019-02-07T15:43:04.440Z,78.03
2019-02-07T15:48:08.801Z,78.03
2019-02-07T15:53:13.488Z,78.45
2019-02-07T15:58:19.500Z,79.07
2019-02-07T16:03:28.514Z,78.54
2019-02-07T16:08:32.962Z,82.44
2019-02-07T16:13:37.378Z,83.61
2019-02-07T16:18:42.057Z,83.32
2019-02-07T16:23:46.690Z,81.35
2019-02-07T16:28:51.068Z,82.31
2019-02-07T16:33:55.610Z,85.85
2019-02-07T16:38:59.955Z,85.85
2019-02-07T16:44:04.454Z,87.49
2019-02-07T16:49:08.838Z,86.98
2019-02-07T16:54:13.154Z,89.68
2019-02-07T16:59:17.530Z,87.61
2019-02-07T17:04:22.288Z,85.57
2019-02-07T17:09:27.042Z,86.93
2019-02-07T17:14:31.373Z,86.82
2019-02-07T17:19:36.108Z,89.24
2019-02-07T17:24:40.482Z,88.16
2019-02-07T17:29:47.915Z,85.64
2019-02-07T17:34:52.387Z,88.63
2019-02-07T17:39:56.828Z,88.49
2019-02-07T17:45:01.361Z,88.19
2019-02-07T17:50:09.903Z,89.24
2019-02-07T17:55:17.039Z,87.73
2019-02-07T18:00:30.424Z,89.00
2019-02-07T18:05:34.896Z,88.06
2019-02-07T18:10:39.459Z,88.99
2019-02-07T18:15:44.179Z,88.55
2019-02-07T18:20:48.652Z,89.34
2019-02-07T18:25:54.064Z,88.10
2019-02-07T18:30:58.514Z,88.37
2019-02-07T18:36:02.855Z,86.53
2019-02-07T18:41:07.354Z,87.02
2019-02-07T18:46:11.760Z,86.15
2019-02-07T18:51:16.158Z,87.96
2019-02-07T18:56:20.516Z,88.12
2019-02-07T19:01:25.328Z,86.82
2019-02-07T19:06:30.214Z,86.28
2019-02-07T19:11:34.845Z,87.94
2019-02-07T19:16:39.554Z,87.65
2019-02-07T19:21:44.351Z,86.83
2019-02-07T19:26:48.911Z,87.45
2019-02-07T19:31:55.893Z,85.93
2019-02-07T19:37:03.279Z,86.28
2019-02-07T19:42:09.139Z,87.32
2019-02-07T19:47:13.963Z,85.71
2019-02-07T19:52:18.685Z,87.67
2019-02-07T19:57:23.266Z,88.12
2019-02-07T20:02:27.852Z,86.48
2019-02-07T20:07:32.590Z,87.56
2019-02-07T20:12:37.095Z,85.88
2019-02-07T20:17:41.558Z,87.49
2019-02-07T20:22:47.752Z,87.35
2019-02-07T20:27:52.185Z,87.75
2019-02-07T20:32:56.860Z,87.90
2019-02-07T20:38:01.378Z,86.86
2019-02-07T20:43:06.368Z,86.98
2019-02-07T20:48:10.986Z,88.24
2019-02-07T20:53:17.115Z,86.19
2019-02-07T20:58:21.935Z,87.15
2019-02-07T21:03:26.437Z,87.34
2019-02-07T21:08:30.972Z,87.05
2019-02-07T21:13:35.371Z,85.77
2019-02-07T21:18:39.761Z,86.01
2019-02-07T21:23:44.138Z,86.56
2019-02-07T21:28:48.549Z,86.91
2019-02-07T21:33:52.964Z,84.98
2019-02-07T21:38:57.345Z,85.73
2019-02-07T21:44:01.712Z,86.59
2019-02-07T21:49:07.376Z,85.64
2019-02-07T21:54:11.814Z,86.84
2019-02-07T21:59:16.360Z,86.97
2019-02-07T22:04:21.071Z,87.04
2019-02-07T22:09:25.723Z,86.42
2019-02-07T22:14:30.111Z,86.31
2019-02-07T22:19:34.548Z,86.43
2019-02-07T22:24:38.868Z,86.63
2019-02-07T22:29:44.112Z,86.63
2019-02-07T22:34:48.497Z,85.22
2019-02-07T22:39:53.068Z,87.36
2019-02-07T22:44:57.448Z,87.09
2019-02-07T22:50:01.820Z,86.56
2019-02-07T22:55:09.310Z,86.56
2019-02-07T23:00:43.021Z,89.04
2019-02-07T23:05:47.762Z,86.81
2019-02-07T23:10:52.321Z,87.55
2019-02-07T23:15:57.067Z,86.93
2019-02-07T23:21:01.396Z,86.73
2019-02-07T23:26:06.025Z,87.01
2019-02-07T23:31:10.751Z,86.47
2019-02-07T23:36:15.142Z,86.73
2019-02-07T23:41:19.651Z,85.71
2019-02-07T23:46:24.007Z,87.25
2019-02-07T23:51:28.570Z,86.13
2019-02-07T23:56:33.202Z,88.19
